createdAt,value
2022-09-18T00:00:21.776Z,1.27
2022-09-18T00:03:12.031Z,0.98
2022-09-18T00:06:08.068Z,1.40
2022-09-18T00:08:59.771Z,0.88
2022-09-18T00:11:51.087Z,1.30
2022-09-18T00:14:41.388Z,1.02
2022-09-18T00:17:31.551Z,1.10
2022-09-18T00:20:21.626Z,1.30
2022-09-18T00:23:11.714Z,1.35
2022-09-18T00:26:02.379Z,1.00
2022-09-18T00:28:53.730Z,0.98
2022-09-18T00:31:44.907Z,1.33
2022-09-18T00:34:35.219Z,1.25
2022-09-18T00:37:25.919Z,1.40
2022-09-18T00:40:16.545Z,1.13
2022-09-18T00:43:24.979Z,1.45
2022-09-18T00:46:36.542Z,1.48
2022-09-18T00:49:27.401Z,1.10
2022-09-18T00:52:21.461Z,1.23
2022-09-18T00:55:12.054Z,1.45
2022-09-18T00:58:03.170Z,1.60
2022-09-18T01:00:55.428Z,1.67
2022-09-18T01:03:45.625Z,1.67
2022-09-18T01:06:55.947Z,1.00
2022-09-18T01:09:54.854Z,1.20
2022-09-18T01:13:09.030Z,1.33
2022-09-18T01:16:23.821Z,1.20
2022-09-18T01:19:26.429Z,1.38
2022-09-18T01:22:39.789Z,1.30
2022-09-18T01:25:50.498Z,1.08
2022-09-18T01:28:57.559Z,1.70
2022-09-18T01:31:56.604Z,1.55
2022-09-18T01:35:06.403Z,1.30
2022-09-18T01:38:06.667Z,1.40
2022-09-18T01:41:02.803Z,1.00
2022-09-18T01:44:05.586Z,1.20
2022-09-18T01:46:59.420Z,1.33
2022-09-18T01:49:56.772Z,1.30
2022-09-18T01:53:15.279Z,1.63
2022-09-18T01:56:19.838Z,1.17
2022-09-18T01:59:16.487Z,1.23
2022-09-18T02:05:26.560Z,1.55
2022-09-18T02:08:28.915Z,1.50
2022-09-18T02:11:23.100Z,1.33
2022-09-18T02:14:21.379Z,1.70
2022-09-18T02:17:48.332Z,1.20
2022-09-18T02:20:42.221Z,1.50
2022-09-18T02:23:33.307Z,1.30
2022-09-18T02:26:23.931Z,1.73
2022-09-18T02:29:17.727Z,1.85
2022-09-18T02:32:08.089Z,1.70
2022-09-18T02:34:58.169Z,2.00
2022-09-18T02:37:59.375Z,1.67
2022-09-18T02:40:58.238Z,1.65
2022-09-18T02:44:01.312Z,1.55
2022-09-18T02:47:28.170Z,1.80
2022-09-18T02:50:28.401Z,1.85
2022-09-18T02:53:25.086Z,2.13
2022-09-18T02:56:22.313Z,1.70
2022-09-18T02:59:36.729Z,1.60
2022-09-18T03:02:28.411Z,1.48
2022-09-18T03:05:19.386Z,1.48
2022-09-18T03:08:19.200Z,1.50
2022-09-18T03:11:09.191Z,1.70
2022-09-18T03:13:59.420Z,1.40
2022-09-18T03:16:49.734Z,1.55
2022-09-18T03:19:40.241Z,1.55
2022-09-18T03:22:31.046Z,1.40
2022-09-18T03:25:21.483Z,1.70
2022-09-18T03:28:11.921Z,1.40
2022-09-18T03:31:05.143Z,1.30
2022-09-18T03:33:56.452Z,1.55
2022-09-18T03:36:49.946Z,1.83
2022-09-18T03:39:40.905Z,1.48
2022-09-18T03:42:34.814Z,1.70
2022-09-18T03:45:25.543Z,1.77
2022-09-18T03:48:15.886Z,2.03
2022-09-18T03:51:06.384Z,1.45
2022-09-18T03:53:56.623Z,1.50
2022-09-18T03:57:04.358Z,1.38
2022-09-18T04:00:17.643Z,1.30
2022-09-18T04:03:12.165Z,1.48
2022-09-18T04:06:22.081Z,1.42
2022-09-18T04:09:46.773Z,1.50
2022-09-18T04:12:36.689Z,1.30
2022-09-18T04:15:32.489Z,1.98
2022-09-18T04:18:22.588Z,1.30
2022-09-18T04:21:13.974Z,1.52
2022-09-18T04:24:04.478Z,1.80
2022-09-18T04:26:54.892Z,1.55
2022-09-18T04:29:47.845Z,1.50
2022-09-18T04:32:40.085Z,1.75
2022-09-18T04:35:30.141Z,1.70
2022-09-18T04:38:27.313Z,1.83
2022-09-18T04:41:18.328Z,1.65
2022-09-18T04:44:08.647Z,1.60
2022-09-18T04:46:59.053Z,1.70
2022-09-18T04:49:49.559Z,1.45
2022-09-18T04:52:39.984Z,1.30
2022-09-18T04:55:30.407Z,1.50
2022-09-18T04:58:21.032Z,1.67
2022-09-18T05:01:17.334Z,1.73
2022-09-18T05:04:07.625Z,1.90
2022-09-18T05:07:07.373Z,1.60
2022-09-18T05:10:00.988Z,1.80
2022-09-18T05:12:54.409Z,2.17
2022-09-18T05:15:44.980Z,2.03
2022-09-18T05:18:35.553Z,1.95
2022-09-18T05:21:27.062Z,1.90
2022-09-18T05:24:18.530Z,2.15
2022-09-18T05:27:09.036Z,2.40
2022-09-18T05:29:59.114Z,2.08
2022-09-18T05:33:10.838Z,2.40
2022-09-18T05:38:55.872Z,2.20
2022-09-18T05:41:51.370Z,2.80
2022-09-18T05:44:41.957Z,2.80
2022-09-18T05:47:38.822Z,2.47
2022-09-18T05:50:31.077Z,2.55
2022-09-18T05:53:22.164Z,3.13
2022-09-18T05:56:33.523Z,2.90
2022-09-18T05:59:23.803Z,2.67
2022-09-18T06:02:18.371Z,3.13
2022-09-18T06:05:27.619Z,2.55
2022-09-18T06:08:18.046Z,2.60
2022-09-18T06:11:08.524Z,2.83
2022-09-18T06:13:59.073Z,3.13
2022-09-18T06:16:50.310Z,2.67
2022-09-18T06:19:40.677Z,2.58
2022-09-18T06:22:32.820Z,2.67
2022-09-18T06:25:23.878Z,2.65
2022-09-18T06:28:14.852Z,2.65
2022-09-18T06:31:05.944Z,2.72
2022-09-18T06:34:10.987Z,2.80
2022-09-18T06:37:03.375Z,3.03
2022-09-18T06:40:13.532Z,3.10
2022-09-18T06:43:22.443Z,2.90
2022-09-18T06:46:24.921Z,2.65
2022-09-18T06:49:16.486Z,2.90
2022-09-18T06:52:08.537Z,3.03
2022-09-18T06:55:00.250Z,3.00
2022-09-18T06:57:56.123Z,2.72
2022-09-18T07:00:46.928Z,2.53
2022-09-18T07:03:48.887Z,3.03
2022-09-18T07:06:45.906Z,2.70
2022-09-18T07:09:37.519Z,2.40
2022-09-18T07:12:35.399Z,2.30
2022-09-18T07:15:28.712Z,2.28
2022-09-18T07:18:19.642Z,2.08
2022-09-18T07:21:10.577Z,1.98
2022-09-18T07:24:03.168Z,2.15
2022-09-18T07:26:55.502Z,1.60
2022-09-18T07:29:47.137Z,2.28
2022-09-18T07:32:38.461Z,2.47
2022-09-18T07:35:35.013Z,1.90
2022-09-18T07:38:27.426Z,1.85
2022-09-18T07:41:20.488Z,2.00
2022-09-18T07:44:11.083Z,1.80
2022-09-18T07:47:02.275Z,2.25
2022-09-18T07:49:56.351Z,1.75
2022-09-18T07:52:54.741Z,1.30
2022-09-18T07:55:49.365Z,1.42
2022-09-18T07:58:39.775Z,1.50
2022-09-18T08:01:43.647Z,1.65
2022-09-18T08:04:34.479Z,1.38
2022-09-18T08:07:33.864Z,1.10
2022-09-18T08:10:47.083Z,1.52
2022-09-18T08:14:03.687Z,1.63
2022-09-18T08:17:05.582Z,1.55
2022-09-18T08:20:13.066Z,1.70
2022-09-18T08:23:09.217Z,1.15
2022-09-18T08:26:04.424Z,1.95
2022-09-18T08:28:55.514Z,1.27
2022-09-18T08:31:47.244Z,1.15
2022-09-18T08:34:38.697Z,1.25
2022-09-18T08:37:30.563Z,1.40
2022-09-18T08:40:42.638Z,1.63
2022-09-18T08:43:57.889Z,1.42
2022-09-18T08:46:56.850Z,1.20
2022-09-18T08:50:01.799Z,1.30
2022-09-18T08:52:59.470Z,1.30
2022-09-18T08:56:01.614Z,1.20
2022-09-18T08:59:27.819Z,1.58
2022-09-18T09:02:40.332Z,1.30
2022-09-18T09:05:43.098Z,1.50
2022-09-18T09:08:56.341Z,1.80
2022-09-18T09:12:08.903Z,1.63
2022-09-18T09:15:34.298Z,1.80
2022-09-18T09:18:57.974Z,1.40
2022-09-18T09:22:01.544Z,1.40
2022-09-18T09:25:13.893Z,1.77
2022-09-18T09:28:21.873Z,1.60
2022-09-18T09:31:38.156Z,1.58
2022-09-18T09:35:15.219Z,1.75
2022-09-18T09:38:52.892Z,1.65
2022-09-18T09:41:58.349Z,1.45
2022-09-18T09:44:55.602Z,1.08
2022-09-18T09:48:01.476Z,1.70
2022-09-18T09:50:59.405Z,1.88
2022-09-18T09:53:53.109Z,1.63
2022-09-18T09:57:00.320Z,1.63
2022-09-18T10:00:27.930Z,1.60
2022-09-18T10:06:58.444Z,2.55
2022-09-18T10:13:16.843Z,1.40
2022-09-18T10:16:22.451Z,1.30
2022-09-18T10:19:16.761Z,1.40
2022-09-18T10:22:10.093Z,1.65
2022-09-18T10:25:33.078Z,1.75
2022-09-18T10:28:25.773Z,1.35
2022-09-18T10:31:18.056Z,1.60
2022-09-18T10:34:33.847Z,1.00
2022-09-18T10:37:28.197Z,0.90
2022-09-18T10:40:37.249Z,1.10
2022-09-18T10:43:28.618Z,1.10
2022-09-18T10:46:32.169Z,1.20
2022-09-18T10:49:28.536Z,1.13
2022-09-18T10:52:35.822Z,1.08
2022-09-18T10:55:55.059Z,1.02
2022-09-18T10:58:46.694Z,1.25
2022-09-18T11:01:40.459Z,1.20
2022-09-18T11:04:34.664Z,1.10
2022-09-18T11:07:26.142Z,1.05
2022-09-18T11:10:19.844Z,1.00
2022-09-18T11:13:22.121Z,1.33
2022-09-18T11:16:23.302Z,0.88
2022-09-18T11:19:25.538Z,1.10
2022-09-18T11:22:33.078Z,0.57
2022-09-18T11:25:28.169Z,2.05
2022-09-18T11:28:31.618Z,0.77
2022-09-18T11:31:28.108Z,0.60
2022-09-18T11:34:35.887Z,0.88
2022-09-18T11:37:39.289Z,0.80
2022-09-18T11:43:29.512Z,0.70
2022-09-18T11:46:38.520Z,0.88
2022-09-18T11:49:36.121Z,0.85
2022-09-18T11:52:33.178Z,0.90
2022-09-18T11:55:38.688Z,1.20
2022-09-18T11:59:00.371Z,0.90
2022-09-18T12:01:57.669Z,0.75
2022-09-18T12:04:54.132Z,0.68
2022-09-18T12:07:50.588Z,0.63
2022-09-18T12:11:12.391Z,0.80
2022-09-18T12:14:32.152Z,0.75
2022-09-18T12:17:56.348Z,0.93
2022-09-18T12:21:01.105Z,0.68
2022-09-18T12:26:57.137Z,0.57
2022-09-18T12:30:02.207Z,0.68
2022-09-18T12:32:52.222Z,0.80
2022-09-18T12:36:11.746Z,0.80
2022-09-18T12:39:18.469Z,0.77
2022-09-18T12:42:42.727Z,0.80
2022-09-18T12:45:36.067Z,0.82
2022-09-18T12:48:37.143Z,0.63
2022-09-18T12:51:46.627Z,0.70
2022-09-18T12:55:07.502Z,0.75
2022-09-18T12:58:16.529Z,0.82
2022-09-18T13:01:28.439Z,0.85
2022-09-18T13:04:37.451Z,0.95
2022-09-18T13:07:33.851Z,0.77
2022-09-18T13:10:33.884Z,0.60
2022-09-18T13:13:42.597Z,0.90
2022-09-18T13:16:40.242Z,0.63
2022-09-18T13:19:38.666Z,0.85
2022-09-18T13:22:35.625Z,0.65
2022-09-18T13:25:34.641Z,0.98
2022-09-18T13:28:27.572Z,0.77
2022-09-18T13:31:23.856Z,0.90
2022-09-18T13:34:17.216Z,0.70
2022-09-18T13:37:07.681Z,0.95
2022-09-18T13:40:10.107Z,1.20
2022-09-18T13:43:29.269Z,0.82
2022-09-18T13:46:37.164Z,1.17
2022-09-18T13:49:33.920Z,0.60
2022-09-18T13:52:33.389Z,0.60
2022-09-18T13:55:25.264Z,1.35
2022-09-18T13:58:36.919Z,0.90
2022-09-18T14:01:42.153Z,1.35
2022-09-18T14:04:38.492Z,0.90
2022-09-18T14:07:28.392Z,0.95
2022-09-18T14:10:26.293Z,0.80
2022-09-18T14:13:21.022Z,1.02
2022-09-18T14:16:20.277Z,1.00
2022-09-18T14:19:36.122Z,0.90
2022-09-18T14:22:29.746Z,1.10
2022-09-18T14:25:43.925Z,1.17
2022-09-18T14:28:36.317Z,0.80
2022-09-18T14:31:38.916Z,1.00
2022-09-18T14:34:41.171Z,0.85
2022-09-18T14:37:35.181Z,0.90
2022-09-18T14:43:22.028Z,1.02
2022-09-18T14:46:18.380Z,0.80
2022-09-18T14:49:26.176Z,0.70
2022-09-18T14:52:21.436Z,0.80
2022-09-18T14:55:18.074Z,0.73
2022-09-18T14:58:14.036Z,0.90
2022-09-18T15:01:06.956Z,0.85
2022-09-18T15:03:59.632Z,0.50
2022-09-18T15:06:53.679Z,1.15
2022-09-18T15:09:49.016Z,0.80
2022-09-18T15:12:42.969Z,0.80
2022-09-18T15:15:40.433Z,0.80
2022-09-18T15:18:38.730Z,0.40
2022-09-18T15:21:33.508Z,0.88
2022-09-18T15:24:23.899Z,1.20
2022-09-18T15:27:15.403Z,1.00
2022-09-18T15:30:11.365Z,1.13
2022-09-18T15:33:05.749Z,0.88
2022-09-18T15:35:56.838Z,0.77
2022-09-18T15:38:47.979Z,0.88
2022-09-18T15:41:42.720Z,0.90
2022-09-18T15:44:39.247Z,1.30
2022-09-18T15:47:29.199Z,1.17
2022-09-18T15:50:19.441Z,1.27
2022-09-18T15:53:20.792Z,1.38
2022-09-18T15:56:20.823Z,0.88
2022-09-18T15:59:27.488Z,1.40
2022-09-18T16:02:34.977Z,1.50
2022-09-18T16:05:27.174Z,1.30
2022-09-18T16:08:21.007Z,1.27
2022-09-18T16:11:51.844Z,1.40
2022-09-18T16:15:10.945Z,0.90
2022-09-18T16:18:04.399Z,1.02
2022-09-18T16:20:54.951Z,0.90
2022-09-18T16:23:54.883Z,1.00
2022-09-18T16:26:45.219Z,0.93
2022-09-18T16:29:35.500Z,0.70
2022-09-18T16:32:25.638Z,0.98
2022-09-18T16:35:16.651Z,1.02
2022-09-18T16:38:06.572Z,1.00
2022-09-18T16:40:56.525Z,1.10
2022-09-18T16:43:46.967Z,1.23
2022-09-18T16:46:48.918Z,1.38
2022-09-18T16:49:42.938Z,1.60
2022-09-18T16:52:32.848Z,1.97
2022-09-18T16:55:23.430Z,1.88
2022-09-18T16:58:16.335Z,1.25
2022-09-18T17:01:07.190Z,1.30
2022-09-18T17:03:57.428Z,1.60
2022-09-18T17:06:48.021Z,1.00
2022-09-18T17:09:38.198Z,1.10
2022-09-18T17:12:28.315Z,1.42
2022-09-18T17:15:18.322Z,1.17
2022-09-18T17:18:08.890Z,1.25
2022-09-18T17:21:04.102Z,1.27
2022-09-18T17:23:56.689Z,1.00
2022-09-18T17:26:46.914Z,1.30
2022-09-18T17:29:37.323Z,0.93
2022-09-18T17:32:27.236Z,1.38
2022-09-18T17:35:17.772Z,1.08
2022-09-18T17:38:08.170Z,0.80
2022-09-18T17:41:00.594Z,0.98
2022-09-18T17:43:54.173Z,0.98
2022-09-18T17:46:45.412Z,1.00
2022-09-18T17:49:35.686Z,0.93
2022-09-18T17:52:25.959Z,1.00
2022-09-18T17:55:16.591Z,1.10
2022-09-18T17:58:07.108Z,1.13
2022-09-18T18:00:58.397Z,0.98
2022-09-18T18:03:48.508Z,1.10
2022-09-18T18:06:38.777Z,1.05
2022-09-18T18:09:28.979Z,1.10
2022-09-18T18:12:19.272Z,1.23
2022-09-18T18:15:09.626Z,1.10
2022-09-18T18:18:00.050Z,0.95
2022-09-18T18:20:51.248Z,0.80
2022-09-18T18:23:42.152Z,0.93
2022-09-18T18:26:32.701Z,1.30
2022-09-18T18:29:23.144Z,1.42
2022-09-18T18:32:13.723Z,1.60
2022-09-18T18:35:03.746Z,1.77
2022-09-18T18:37:53.766Z,1.15
2022-09-18T18:40:44.796Z,1.40
2022-09-18T18:43:37.600Z,1.30
2022-09-18T18:46:30.034Z,1.33
2022-09-18T18:49:20.256Z,1.20
2022-09-18T18:52:10.601Z,1.30
2022-09-18T18:55:01.932Z,1.30
2022-09-18T18:57:52.571Z,1.50
2022-09-18T19:00:42.383Z,1.23
2022-09-18T19:03:36.989Z,1.30
2022-09-18T19:06:29.843Z,1.70
2022-09-18T19:09:24.599Z,1.38
2022-09-18T19:15:07.421Z,0.98
2022-09-18T19:17:58.031Z,1.00
2022-09-18T19:20:52.227Z,1.00
2022-09-18T19:23:42.104Z,1.00
2022-09-18T19:26:32.454Z,1.30
2022-09-18T19:29:22.658Z,1.20
2022-09-18T19:32:13.374Z,0.90
2022-09-18T19:35:03.747Z,1.00
2022-09-18T19:37:53.800Z,1.17
2022-09-18T19:40:45.159Z,1.02
2022-09-18T19:43:37.189Z,1.10
2022-09-18T19:46:30.970Z,1.00
2022-09-18T19:49:25.628Z,1.25
2022-09-18T19:52:21.351Z,1.00
2022-09-18T19:55:15.683Z,1.00
2022-09-18T20:00:55.813Z,0.82
2022-09-18T20:03:46.078Z,1.10
2022-09-18T20:06:38.782Z,1.33
2022-09-18T20:09:30.520Z,1.10
2022-09-18T20:12:20.806Z,1.00
2022-09-18T20:15:11.423Z,0.90
2022-09-18T20:18:01.473Z,1.08
2022-09-18T20:20:51.827Z,1.25
2022-09-18T20:23:42.029Z,0.90
2022-09-18T20:26:32.024Z,0.90
2022-09-18T20:29:21.888Z,0.90
2022-09-18T20:32:11.991Z,1.30
2022-09-18T20:35:02.439Z,1.30
2022-09-18T20:37:53.207Z,1.33
2022-09-18T20:40:44.104Z,0.90
2022-09-18T20:43:35.806Z,1.00
2022-09-18T20:46:27.320Z,1.30
2022-09-18T20:49:17.973Z,1.23
2022-09-18T20:52:12.367Z,1.23
2022-09-18T20:55:08.276Z,0.95
2022-09-18T20:58:02.124Z,1.10
2022-09-18T21:00:54.169Z,1.02
2022-09-18T21:03:46.032Z,1.25
2022-09-18T21:06:36.428Z,1.00
2022-09-18T21:09:28.933Z,0.95
2022-09-18T21:12:19.150Z,0.93
2022-09-18T21:15:15.464Z,1.05
2022-09-18T21:18:05.284Z,1.00
2022-09-18T21:21:03.715Z,1.17
2022-09-18T21:24:02.037Z,0.90
2022-09-18T21:26:52.283Z,0.90
2022-09-18T21:29:42.273Z,1.10
2022-09-18T21:32:32.138Z,0.93
2022-09-18T21:35:22.318Z,1.00
2022-09-18T21:38:13.440Z,1.08
2022-09-18T21:41:05.907Z,1.20
2022-09-18T21:43:59.536Z,1.15
2022-09-18T21:46:50.179Z,1.20
2022-09-18T21:49:40.826Z,1.10
2022-09-18T21:52:31.026Z,1.20
2022-09-18T21:55:21.014Z,1.30
2022-09-18T21:58:11.964Z,1.20
2022-09-18T22:01:18.725Z,1.50
2022-09-18T22:04:10.339Z,1.15
2022-09-18T22:07:01.576Z,1.20
2022-09-18T22:09:51.803Z,1.20
2022-09-18T22:12:41.858Z,1.05
2022-09-18T22:15:32.188Z,1.30
2022-09-18T22:18:22.156Z,1.10
2022-09-18T22:21:24.388Z,1.10
2022-09-18T22:24:18.825Z,1.33
2022-09-18T22:27:10.301Z,1.23
2022-09-18T22:30:00.297Z,1.33
2022-09-18T22:32:50.876Z,1.35
2022-09-18T22:35:40.768Z,1.13
2022-09-18T22:38:31.126Z,1.27
2022-09-18T22:41:21.587Z,0.88
2022-09-18T22:44:12.662Z,0.90
2022-09-18T22:47:02.975Z,1.00
2022-09-18T22:49:53.462Z,1.08
2022-09-18T22:52:43.353Z,1.20
2022-09-18T22:55:34.748Z,1.40
2022-09-18T22:58:24.764Z,1.10
2022-09-18T23:01:34.153Z,1.08
2022-09-18T23:04:28.995Z,1.05
2022-09-18T23:07:19.848Z,0.98
2022-09-18T23:10:10.304Z,0.90
2022-09-18T23:13:00.443Z,1.00
2022-09-18T23:15:50.346Z,0.70
2022-09-18T23:18:41.226Z,1.00
2022-09-18T23:21:33.365Z,0.85
2022-09-18T23:24:24.142Z,0.70
2022-09-18T23:27:14.279Z,0.80
2022-09-18T23:30:05.082Z,0.80
2022-09-18T23:32:55.220Z,0.60
2022-09-18T23:35:45.495Z,0.40
2022-09-18T23:38:35.853Z,0.50
2022-09-18T23:41:27.328Z,0.70
2022-09-18T23:44:19.473Z,0.60
2022-09-18T23:47:10.102Z,0.50
2022-09-18T23:50:00.207Z,0.63
2022-09-18T23:52:50.642Z,0.82
2022-09-18T23:55:40.772Z,0.55
2022-09-18T23:58:31.428Z,0.30
